Time;durP1;ratioP1;P1;durP2;ratioP2;P2;SDS_P1;SDS_P2;PMS_P1;PMS_P2;Temp;Humidity;BMP_temperature;BMP_pressure;BME280_temperature;BME280_humidity;BME280_pressure;Samples;Min_cycle;Max_cycle;Signal;HPM_P1;HPM_P2
2023/03/04 00:00:31;;;;;;;76.30;43.72;;;1.50;73.40;;;;;;5035933;28;20470;-75
2023/03/04 00:02:57;;;;;;;77.00;42.75;;;1.50;73.80;;;;;;5053680;28;20025;-73
2023/03/04 00:05:22;;;;;;;75.43;42.72;;;1.50;74.20;;;;;;5053612;28;20100;-74
2023/03/04 00:07:48;;;;;;;72.53;42.47;;;1.40;74.10;;;;;;5053403;28;20025;-74
2023/03/04 00:10:13;;;;;;;73.47;43.35;;;1.40;74.20;;;;;;5053566;28;20029;-74
2023/03/04 00:12:39;;;;;;;77.88;43.63;;;1.50;74.50;;;;;;5053510;28;20021;-74
2023/03/04 00:15:05;;;;;;;80.53;44.28;;;1.50;74.40;;;;;;5053380;28;20037;-74
2023/03/04 00:17:30;;;;;;;73.80;42.20;;;1.50;74.50;;;;;;5053006;28;20021;-74
2023/03/04 00:19:57;;;;;;;77.93;42.63;;;1.40;74.40;;;;;;5053436;28;20443;-75
2023/03/04 00:22:23;;;;;;;78.95;44.70;;;1.50;74.70;;;;;;5053223;28;20032;-73
2023/03/04 00:24:48;;;;;;;83.38;43.97;;;1.40;74.50;;;;;;5053245;28;20025;-72
2023/03/04 00:27:14;;;;;;;77.45;43.13;;;1.50;75.50;;;;;;5035378;28;20021;-73
2023/03/04 00:29:40;;;;;;;85.43;45.78;;;1.40;74.40;;;;;;5053161;28;20470;-73
2023/03/04 00:32:05;;;;;;;76.25;44.22;;;1.40;74.30;;;;;;5053165;28;20053;-73
2023/03/04 00:34:31;;;;;;;78.68;44.60;;;1.50;74.40;;;;;;5035072;28;20429;-73
2023/03/04 00:37:00;;;;;;;77.35;42.75;;;1.40;74.10;;;;;;5053020;28;20047;-73
2023/03/04 00:39:27;;;;;;;80.75;43.92;;;1.50;74.10;;;;;;5053094;28;20028;-73
2023/03/04 00:41:52;;;;;;;72.60;40.90;;;1.40;73.90;;;;;;5052929;28;20058;-73
2023/03/04 00:44:18;;;;;;;71.88;41.00;;;1.40;73.90;;;;;;5052973;28;20100;-75
2023/03/04 00:46:43;;;;;;;76.97;43.05;;;1.40;73.90;;;;;;5052959;28;20032;-73
2023/03/04 00:49:09;;;;;;;72.05;41.25;;;1.50;73.80;;;;;;5052970;28;20442;-73
2023/03/04 00:51:34;;;;;;;77.95;42.30;;;1.50;73.70;;;;;;5033948;28;20485;-73
2023/03/04 00:54:00;;;;;;;74.45;40.83;;;1.50;73.30;;;;;;5034912;28;20103;-73
2023/03/04 00:56:26;;;;;;;76.07;42.35;;;1.50;73.00;;;;;;5052822;28;20021;-74
2023/03/04 00:58:51;;;;;;;79.03;43.08;;;1.40;73.10;;;;;;5052755;28;20385;-73
2023/03/04 01:01:17;;;;;;;79.40;44.45;;;1.30;73.40;;;;;;5052728;28;20033;-73
2023/03/04 01:03:42;;;;;;;74.57;44.08;;;1.30;73.80;;;;;;5052739;28;20128;-72
2023/03/04 01:06:08;;;;;;;90.13;46.53;;;1.20;74.10;;;;;;5052545;28;20029;-73
2023/03/04 01:08:33;;;;;;;80.30;46.70;;;1.20;74.30;;;;;;5052698;28;20052;-73
2023/03/04 01:10:59;;;;;;;85.95;47.38;;;1.20;74.40;;;;;;5052598;28;20025;-73
2023/03/04 01:13:25;;;;;;;89.65;46.72;;;1.20;74.60;;;;;;5052560;28;20106;-73
2023/03/04 01:15:50;;;;;;;87.93;46.63;;;1.20;74.80;;;;;;5052572;28;20041;-72
2023/03/04 01:18:16;;;;;;;78.10;45.25;;;1.20;74.70;;;;;;5052570;28;20045;-75
2023/03/04 01:20:41;;;;;;;77.47;44.55;;;1.20;74.50;;;;;;5052598;28;20037;-73
2023/03/04 01:23:07;;;;;;;78.40;44.42;;;1.10;74.50;;;;;;5052686;28;20028;-73
2023/03/04 01:25:32;;;;;;;86.32;48.17;;;1.10;74.70;;;;;;5034705;28;20044;-73
2023/03/04 01:27:58;;;;;;;91.45;48.88;;;1.10;75.00;;;;;;5034742;28;20026;-73
2023/03/04 01:30:23;;;;;;;83.70;46.92;;;1.10;75.20;;;;;;5052491;28;20025;-73
2023/03/04 01:32:49;;;;;;;87.30;49.08;;;1.00;75.20;;;;;;5052556;28;20120;-73
2023/03/04 01:35:14;;;;;;;81.88;46.25;;;1.00;75.90;;;;;;5052273;28;20037;-73
2023/03/04 01:37:40;;;;;;;84.47;46.65;;;1.00;75.80;;;;;;5034690;28;20460;-72
2023/03/04 01:40:06;;;;;;;82.97;46.03;;;1.00;75.70;;;;;;5052485;28;20082;-73
2023/03/04 01:42:34;;;;;;;87.95;48.28;;;1.00;75.70;;;;;;5052351;28;20017;-73
2023/03/04 01:45:00;;;;;;;88.63;47.80;;;1.00;76.00;;;;;;5052400;28;20021;-73
2023/03/04 01:47:31;;;;;;;89.18;48.85;;;1.00;76.10;;;;;;5052438;28;20033;-73
2023/03/04 01:49:57;;;;;;;89.22;48.10;;;1.00;76.20;;;;;;5052304;28;20053;-72
2023/03/04 01:52:26;;;;;;;87.97;49.75;;;1.00;76.70;;;;;;5052355;28;20021;-73
2023/03/04 01:54:51;;;;;;;95.57;50.30;;;0.90;77.10;;;;;;5052291;28;20040;-73
2023/03/04 01:57:22;;;;;;;95.60;50.63;;;0.90;77.10;;;;;;5052264;28;20022;-74
2023/03/04 02:00:14;;;;;;;97.32;49.67;;;0.90;77.10;;;;;;5034478;28;20480;-74
2023/03/04 02:02:39;;;;;;;88.50;49.53;;;0.90;77.20;;;;;;5053097;28;20059;-77
2023/03/04 02:05:05;;;;;;;87.32;48.63;;;0.90;77.50;;;;;;5037961;28;20029;-74
2023/03/04 02:07:30;;;;;;;87.75;48.42;;;0.80;77.50;;;;;;5055791;28;20025;-76
2023/03/04 02:09:56;;;;;;;83.43;47.83;;;0.80;77.30;;;;;;5055603;28;20482;-73
2023/03/04 02:12:21;;;;;;;83.32;46.42;;;0.80;77.20;;;;;;5055807;28;20484;-76
2023/03/04 02:14:47;;;;;;;85.03;46.42;;;0.80;77.20;;;;;;5055604;28;20037;-75
2023/03/04 02:17:13;;;;;;;80.88;46.85;;;0.90;77.30;;;;;;5055568;28;20488;-74
2023/03/04 02:19:43;;;;;;;86.30;47.25;;;0.90;77.10;;;;;;5055676;28;20482;-74
2023/03/04 02:22:08;;;;;;;89.55;48.50;;;0.90;76.80;;;;;;5037731;28;20025;-73
2023/03/04 02:24:44;;;;;;;87.10;48.72;;;0.90;76.50;;;;;;5055511;28;20044;-74
2023/03/04 02:27:10;;;;;;;88.07;49.13;;;0.80;76.50;;;;;;5055802;28;20044;-76
2023/03/04 02:29:36;;;;;;;89.88;49.40;;;0.80;76.50;;;;;;5055425;28;20462;-74
2023/03/04 02:32:02;;;;;;;87.45;48.90;;;0.80;76.70;;;;;;5055421;28;20079;-75
2023/03/04 02:34:33;;;;;;;86.18;48.75;;;0.70;76.90;;;;;;5037363;28;20032;-75
2023/03/04 02:37:00;;;;;;;85.35;47.40;;;0.70;77.30;;;;;;5055343;28;20465;-76
2023/03/04 02:39:28;;;;;;;81.75;47.47;;;0.60;77.40;;;;;;5055315;28;20162;-75
2023/03/04 02:41:55;;;;;;;84.78;46.13;;;0.70;77.50;;;;;;5037650;28;20017;-73
2023/03/04 02:44:24;;;;;;;79.55;45.72;;;0.70;77.40;;;;;;5037680;28;20063;-73
2023/03/04 02:46:50;;;;;;;78.95;46.05;;;0.80;77.20;;;;;;5055324;28;20099;-74
2023/03/04 02:49:16;;;;;;;85.45;48.78;;;0.80;76.90;;;;;;5037231;28;20109;-74
2023/03/04 02:51:42;;;;;;;77.32;44.88;;;0.80;76.50;;;;;;5021011;28;20032;-75
2023/03/04 02:54:19;;;;;;;73.03;42.80;;;0.90;76.20;;;;;;5037218;28;20029;-74
2023/03/04 02:56:53;;;;;;;81.43;45.53;;;0.80;75.50;;;;;;5055036;28;20455;-74
2023/03/04 02:59:20;;;;;;;75.63;43.25;;;0.80;74.90;;;;;;5054865;28;20022;-74
2023/03/04 03:01:46;;;;;;;76.50;43.85;;;0.70;74.70;;;;;;5054822;28;20036;-74
2023/03/04 03:04:11;;;;;;;75.95;43.13;;;0.70;74.50;;;;;;5054734;28;20029;-74
2023/03/04 03:06:38;;;;;;;78.20;43.95;;;0.70;74.50;;;;;;5054727;28;20025;-75
2023/03/04 03:09:04;;;;;;;83.30;47.00;;;0.70;74.50;;;;;;5054730;28;20028;-74
2023/03/04 03:11:29;;;;;;;85.82;47.40;;;0.70;74.40;;;;;;5054668;28;20039;-74
2023/03/04 03:13:55;;;;;;;88.20;48.40;;;0.80;74.30;;;;;;5053998;28;20128;-74
2023/03/04 03:16:21;;;;;;;91.60;49.15;;;0.80;74.30;;;;;;5054318;28;20040;-74
2023/03/04 03:18:46;;;;;;;85.28;48.72;;;0.70;74.20;;;;;;5054586;28;20052;-74
2023/03/04 03:21:12;;;;;;;90.65;49.53;;;0.70;74.30;;;;;;5054621;28;20051;-74
2023/03/04 03:23:37;;;;;;;84.75;47.08;;;0.70;74.20;;;;;;5054571;28;20021;-74
2023/03/04 03:26:04;;;;;;;83.32;46.67;;;0.70;74.20;;;;;;5036625;28;20103;-74
2023/03/04 03:28:29;;;;;;;75.75;42.83;;;0.60;74.20;;;;;;5054346;28;20073;-74
2023/03/04 03:30:55;;;;;;;76.60;44.60;;;0.60;74.10;;;;;;5036541;28;20473;-73
2023/03/04 03:33:21;;;;;;;86.85;48.13;;;0.60;73.80;;;;;;5054382;28;20032;-74
2023/03/04 03:35:46;;;;;;;83.78;47.53;;;0.60;74.00;;;;;;5054122;28;20091;-72
2023/03/04 03:38:12;;;;;;;84.53;45.80;;;0.60;74.20;;;;;;5054247;28;20025;-72
2023/03/04 03:40:37;;;;;;;80.85;46.78;;;0.60;74.30;;;;;;5053866;28;20492;-73
2023/03/04 03:43:03;;;;;;;82.50;46.20;;;0.50;74.10;;;;;;5036241;28;20021;-73
2023/03/04 03:45:29;;;;;;;84.50;46.60;;;0.60;73.70;;;;;;5054065;28;20025;-73
2023/03/04 03:47:54;;;;;;;81.50;45.95;;;0.60;73.60;;;;;;5054046;28;20079;-73
2023/03/04 03:50:20;;;;;;;76.70;43.10;;;0.60;73.30;;;;;;5053984;28;20025;-73
2023/03/04 03:52:46;;;;;;;77.57;45.03;;;0.60;73.00;;;;;;5053852;28;20021;-73
2023/03/04 03:55:11;;;;;;;81.35;43.28;;;0.60;72.80;;;;;;5053725;28;20044;-73
2023/03/04 03:57:37;;;;;;;83.10;45.67;;;0.50;72.50;;;;;;5053867;28;20029;-73
2023/03/04 04:00:04;;;;;;;75.00;42.28;;;0.50;72.30;;;;;;5035842;28;20474;-73
2023/03/04 04:02:29;;;;;;;83.68;47.10;;;0.50;72.20;;;;;;5053634;28;20501;-73
2023/03/04 04:04:55;;;;;;;80.57;45.25;;;0.50;72.20;;;;;;5053707;28;20029;-72
2023/03/04 04:07:20;;;;;;;80.38;45.45;;;0.40;72.20;;;;;;5053597;28;20068;-73
2023/03/04 04:09:47;;;;;;;75.55;42.85;;;0.40;72.50;;;;;;5053569;28;20512;-73
2023/03/04 04:12:15;;;;;;;78.00;43.95;;;0.40;72.60;;;;;;5053399;28;20017;-72
2023/03/04 04:14:41;;;;;;;86.88;47.75;;;0.30;72.60;;;;;;5053414;28;20031;-74
2023/03/04 04:17:06;;;;;;;81.50;44.83;;;0.30;72.90;;;;;;5035675;28;20021;-73
2023/03/04 04:19:32;;;;;;;80.05;44.25;;;0.30;73.10;;;;;;5053345;28;20049;-75
2023/03/04 04:21:57;;;;;;;72.75;42.97;;;0.20;73.30;;;;;;5053425;28;20025;-75
2023/03/04 04:24:23;;;;;;;81.75;47.65;;;0.20;73.60;;;;;;5035402;28;20035;-75
2023/03/04 04:26:49;;;;;;;81.38;43.38;;;0.30;73.90;;;;;;5053313;28;20112;-75
2023/03/04 04:29:15;;;;;;;84.47;46.35;;;0.20;74.00;;;;;;5053274;28;20029;-75
2023/03/04 04:31:41;;;;;;;85.45;48.17;;;0.20;74.20;;;;;;5053120;28;20049;-75
2023/03/04 04:34:06;;;;;;;83.72;47.38;;;0.10;74.50;;;;;;5053090;28;20065;-74
2023/03/04 04:36:32;;;;;;;91.10;50.90;;;0.20;74.60;;;;;;5053121;28;20025;-74
2023/03/04 04:38:58;;;;;;;89.65;50.08;;;0.20;74.70;;;;;;5053144;28;20116;-75
2023/03/04 04:41:27;;;;;;;88.63;48.30;;;0.10;74.90;;;;;;5053083;28;20493;-75
2023/03/04 04:43:53;;;;;;;81.68;48.22;;;0.10;75.10;;;;;;5053071;28;20104;-74
2023/03/04 04:46:19;;;;;;;92.07;53.10;;;0.10;75.50;;;;;;5053036;28;20104;-74
2023/03/04 04:48:45;;;;;;;83.82;52.13;;;0.10;75.80;;;;;;5052907;28;20416;-74
2023/03/04 04:51:11;;;;;;;91.65;54.75;;;0.10;75.80;;;;;;5052794;28;20112;-75
2023/03/04 04:53:36;;;;;;;95.22;54.67;;;0.10;76.00;;;;;;5052783;28;20049;-75
2023/03/04 04:56:13;;;;;;;84.57;53.55;;;0.10;75.80;;;;;;5052765;28;20075;-74
2023/03/04 04:58:38;;;;;;;94.88;56.20;;;0.10;75.80;;;;;;5052739;28;20029;-74
2023/03/04 05:01:04;;;;;;;98.88;55.92;;;0.10;75.90;;;;;;5052789;28;20096;-74
2023/03/04 05:03:31;;;;;;;88.65;53.15;;;0.00;76.50;;;;;;5034912;28;20029;-74
2023/03/04 05:05:57;;;;;;;88.00;56.05;;;0.00;76.70;;;;;;5052700;28;20021;-74
2023/03/04 05:08:22;;;;;;;92.93;56.33;;;0.00;76.90;;;;;;5052603;28;20032;-75
2023/03/04 05:10:48;;;;;;;92.10;57.13;;;0.00;77.00;;;;;;5034819;28;20036;-75
2023/03/04 05:13:14;;;;;;;88.85;55.03;;;0.00;77.00;;;;;;5052766;28;20028;-74
2023/03/04 05:15:39;;;;;;;88.40;55.03;;;0.10;77.00;;;;;;5052597;28;20482;-76
2023/03/04 05:18:05;;;;;;;88.25;51.33;;;0.00;76.30;;;;;;5052631;28;20138;-76
2023/03/04 05:20:31;;;;;;;84.53;50.08;;;0.00;75.50;;;;;;5052629;28;20025;-76
2023/03/04 05:22:56;;;;;;;84.38;51.47;;;0.00;74.90;;;;;;5052689;28;20032;-76
2023/03/04 05:25:22;;;;;;;87.93;50.33;;;0.00;74.50;;;;;;5052752;28;20033;-76
2023/03/04 05:27:47;;;;;;;88.45;54.30;;;-0.10;74.90;;;;;;5052482;28;20124;-74
2023/03/04 05:30:13;;;;;;;87.60;53.38;;;-0.10;74.80;;;;;;5052489;28;20029;-74
2023/03/04 05:32:39;;;;;;;88.07;52.38;;;-0.20;75.00;;;;;;5052525;28;20022;-75
2023/03/04 05:35:05;;;;;;;89.50;53.92;;;-0.30;75.20;;;;;;5052466;28;20037;-75
2023/03/04 05:37:30;;;;;;;88.13;51.53;;;-0.30;75.40;;;;;;5053004;28;20028;-75
2023/03/04 05:39:56;;;;;;;85.07;51.58;;;-0.30;75.60;;;;;;5056424;28;20025;-74
2023/03/04 05:42:21;;;;;;;83.95;51.03;;;-0.30;75.60;;;;;;5056372;28;20032;-74
2023/03/04 05:44:47;;;;;;;88.32;51.97;;;-0.30;75.80;;;;;;5056302;28;20028;-74
2023/03/04 05:47:12;;;;;;;89.53;52.75;;;-0.20;75.80;;;;;;5060843;28;20033;-75
2023/03/04 05:49:39;;;;;;;86.72;53.17;;;-0.20;75.70;;;;;;5059957;28;20028;-74
2023/03/04 05:52:05;;;;;;;92.80;57.95;;;-0.10;75.70;;;;;;5056205;28;20021;-74
2023/03/04 05:54:31;;;;;;;100.13;57.97;;;-0.10;75.80;;;;;;5055852;28;20032;-74
2023/03/04 05:56:56;;;;;;;103.68;60.60;;;-0.20;76.70;;;;;;5056122;28;20118;-74
2023/03/04 05:59:22;;;;;;;99.57;59.05;;;-0.30;77.70;;;;;;5056042;28;20378;-74
2023/03/04 06:01:47;;;;;;;93.00;58.60;;;-0.30;78.40;;;;;;5055970;28;20488;-74
2023/03/04 06:04:13;;;;;;;98.43;58.28;;;-0.20;78.50;;;;;;5055716;28;20508;-74
2023/03/04 06:06:39;;;;;;;108.35;61.17;;;-0.20;78.50;;;;;;5055871;28;20019;-74
2023/03/04 06:09:04;;;;;;;99.72;58.53;;;-0.20;79.00;;;;;;5055656;28;20048;-75
2023/03/04 06:11:30;;;;;;;97.80;59.33;;;-0.20;79.80;;;;;;5037832;28;20049;-74
2023/03/04 06:13:55;;;;;;;116.88;68.97;;;-0.20;78.60;;;;;;5055675;28;20035;-75
2023/03/04 06:16:21;;;;;;;131.48;80.22;;;-0.10;78.00;;;;;;5055661;28;20024;-74
2023/03/04 06:18:46;;;;;;;151.15;90.90;;;-0.10;77.50;;;;;;5037454;28;20091;-75
2023/03/04 06:21:12;;;;;;;124.20;72.15;;;-0.10;76.80;;;;;;5055452;28;20060;-74
2023/03/04 06:23:38;;;;;;;97.32;59.38;;;-0.10;76.20;;;;;;5055378;28;20017;-75
2023/03/04 06:26:04;;;;;;;97.88;57.65;;;-0.10;75.60;;;;;;5055497;28;20017;-74
2023/03/04 06:28:30;;;;;;;107.07;61.53;;;0.00;75.00;;;;;;5055389;28;20017;-73
2023/03/04 06:30:57;;;;;;;116.85;65.05;;;0.00;74.50;;;;;;5055096;28;20025;-73
2023/03/04 06:33:22;;;;;;;105.57;61.75;;;0.00;74.20;;;;;;5055504;28;20492;-73
2023/03/04 06:35:52;;;;;;;106.57;60.88;;;0.10;73.80;;;;;;5055259;28;20033;-73
2023/03/04 06:38:17;;;;;;;94.63;57.88;;;0.10;73.60;;;;;;5055303;28;20032;-73
2023/03/04 06:40:44;;;;;;;96.90;57.38;;;0.10;73.30;;;;;;5037229;28;20036;-74
2023/03/04 06:43:10;;;;;;;94.75;56.67;;;0.20;73.40;;;;;;5055205;28;20020;-74
2023/03/04 06:45:37;;;;;;;91.25;54.08;;;0.20;73.60;;;;;;5055251;28;20140;-74
2023/03/04 06:48:03;;;;;;;91.47;53.95;;;0.30;73.70;;;;;;5055060;28;20029;-74
2023/03/04 06:50:29;;;;;;;88.75;54.42;;;0.30;73.80;;;;;;5054141;28;20355;-74
2023/03/04 06:52:56;;;;;;;87.75;52.25;;;0.40;74.20;;;;;;5054742;28;20032;-75
2023/03/04 06:55:21;;;;;;;84.75;52.50;;;0.50;74.20;;;;;;5054754;28;20049;-75
2023/03/04 06:57:47;;;;;;;77.45;50.10;;;0.60;73.70;;;;;;5054843;28;20106;-74
2023/03/04 07:00:13;;;;;;;83.13;48.75;;;0.60;73.00;;;;;;5054774;28;20021;-74
2023/03/04 07:02:39;;;;;;;73.72;44.10;;;0.70;72.30;;;;;;5036814;28;20029;-74
2023/03/04 07:05:05;;;;;;;83.20;47.47;;;0.70;71.70;;;;;;5036860;28;20078;-75
2023/03/04 07:07:30;;;;;;;84.25;48.20;;;0.90;71.30;;;;;;5054541;28;20485;-73
2023/03/04 07:09:56;;;;;;;79.15;47.33;;;1.00;70.70;;;;;;5054611;28;20033;-73
2023/03/04 07:12:21;;;;;;;92.55;51.03;;;1.00;70.10;;;;;;5054523;28;20026;-73
2023/03/04 07:14:47;;;;;;;92.45;49.97;;;1.10;69.80;;;;;;5054364;28;20505;-73
2023/03/04 07:17:12;;;;;;;93.07;51.97;;;1.20;69.40;;;;;;5054600;28;20017;-73
2023/03/04 07:19:38;;;;;;;98.50;55.90;;;1.20;69.40;;;;;;5036559;28;20129;-73
2023/03/04 07:22:03;;;;;;;92.43;52.20;;;1.20;68.70;;;;;;5054310;28;20025;-73
2023/03/04 07:24:29;;;;;;;97.80;55.58;;;1.30;69.00;;;;;;5053897;28;20035;-73
2023/03/04 07:26:54;;;;;;;95.43;54.38;;;1.40;69.10;;;;;;5054348;28;20461;-73
2023/03/04 07:29:20;;;;;;;102.07;55.95;;;1.40;68.80;;;;;;5054346;28;20094;-73
2023/03/04 07:31:46;;;;;;;96.82;55.35;;;1.40;68.70;;;;;;5054199;28;20029;-73
2023/03/04 07:34:13;;;;;;;89.85;52.72;;;1.50;68.80;;;;;;5054040;28;20021;-73
2023/03/04 07:36:39;;;;;;;97.93;54.05;;;1.60;68.80;;;;;;5036122;28;20123;-74
2023/03/04 07:39:05;;;;;;;98.68;54.22;;;1.70;68.80;;;;;;5054071;28;20029;-75
2023/03/04 07:41:34;;;;;;;100.18;57.25;;;1.80;68.70;;;;;;5053947;28;20112;-74
2023/03/04 07:44:01;;;;;;;89.82;50.03;;;1.90;68.30;;;;;;5053910;28;20520;-74
2023/03/04 07:46:27;;;;;;;103.68;57.58;;;2.00;67.90;;;;;;5053988;28;20033;-73
2023/03/04 07:48:54;;;;;;;116.20;64.15;;;2.00;68.00;;;;;;5053806;28;20072;-72
2023/03/04 07:51:23;;;;;;;91.90;54.30;;;2.00;69.00;;;;;;5053708;28;20032;-73
2023/03/04 07:53:51;;;;;;;103.82;56.25;;;2.10;69.10;;;;;;5053439;28;20032;-73
2023/03/04 07:56:21;;;;;;;81.97;37.83;;;2.10;69.40;;;;;;5053587;28;20029;-72
2023/03/04 07:58:47;;;;;;;107.72;57.75;;;2.40;82.20;;;;;;5053645;28;20484;-73
2023/03/04 08:01:25;;;;;;;100.28;55.38;;;2.90;85.80;;;;;;5053063;28;20029;-72
2023/03/04 08:03:50;;;;;;;103.03;56.72;;;3.10;79.50;;;;;;5053497;28;20052;-72
2023/03/04 08:06:18;;;;;;;106.93;58.03;;;3.30;73.40;;;;;;5053465;28;20536;-74
2023/03/04 08:08:44;;;;;;;92.45;52.53;;;3.50;73.50;;;;;;5035598;28;20021;-74
2023/03/04 08:11:13;;;;;;;110.63;53.92;;;3.70;70.40;;;;;;5035387;28;20024;-71
2023/03/04 08:13:38;;;;;;;92.85;52.95;;;3.90;70.30;;;;;;5035415;28;20029;-72
2023/03/04 08:16:04;;;;;;;92.60;51.10;;;4.10;68.50;;;;;;5052983;28;20069;-73
2023/03/04 08:18:30;;;;;;;92.90;50.38;;;4.20;68.90;;;;;;5052903;28;20048;-75
2023/03/04 08:20:56;;;;;;;88.75;49.08;;;4.50;69.00;;;;;;5034776;28;20037;-79
2023/03/04 08:23:21;;;;;;;89.82;51.03;;;4.70;68.70;;;;;;5035384;28;20075;-75
2023/03/04 08:25:47;;;;;;;91.68;52.28;;;5.00;67.50;;;;;;5035225;28;20378;-74
2023/03/04 08:28:13;;;;;;;90.10;49.13;;;5.00;65.30;;;;;;5053026;28;20382;-74
2023/03/04 08:30:39;;;;;;;93.40;50.80;;;4.80;64.70;;;;;;5052639;28;20025;-74
2023/03/04 08:33:05;;;;;;;85.20;47.17;;;4.50;64.70;;;;;;5052677;28;20477;-73
2023/03/04 08:35:31;;;;;;;87.22;50.00;;;4.30;65.80;;;;;;5052698;28;20123;-73
2023/03/04 08:37:57;;;;;;;97.90;53.85;;;4.30;66.40;;;;;;5052743;28;20056;-74
2023/03/04 08:40:25;;;;;;;87.07;49.70;;;4.20;66.50;;;;;;5052918;28;20105;-73
2023/03/04 08:42:51;;;;;;;92.82;52.95;;;4.00;67.10;;;;;;5052790;28;20151;-73
2023/03/04 08:45:16;;;;;;;96.03;52.83;;;3.80;68.00;;;;;;5052524;28;20104;-73
2023/03/04 08:47:42;;;;;;;88.35;48.90;;;3.70;69.30;;;;;;5034112;28;20021;-73
2023/03/04 08:50:08;;;;;;;86.20;49.42;;;3.70;69.70;;;;;;5052395;28;20025;-73
2023/03/04 08:52:34;;;;;;;84.90;47.72;;;3.90;69.10;;;;;;5034654;28;20586;-73
2023/03/04 08:54:59;;;;;;;86.97;46.88;;;4.00;68.60;;;;;;5052359;28;20111;-74
2023/03/04 08:57:25;;;;;;;75.45;44.80;;;4.00;68.50;;;;;;5052364;28;20037;-73
2023/03/04 08:59:51;;;;;;;81.05;45.05;;;4.00;68.50;;;;;;5034353;28;20022;-73
2023/03/04 09:02:16;;;;;;;74.03;42.00;;;4.10;68.30;;;;;;5052481;28;20036;-73
2023/03/04 09:04:42;;;;;;;74.15;41.55;;;4.30;67.50;;;;;;5052611;28;20029;-73
2023/03/04 09:07:08;;;;;;;79.82;43.10;;;4.60;67.20;;;;;;5052515;28;20041;-72
2023/03/04 09:09:34;;;;;;;69.97;39.20;;;4.70;65.80;;;;;;5052322;28;20029;-73
2023/03/04 09:12:00;;;;;;;64.68;36.50;;;5.00;65.30;;;;;;5034016;28;20051;-73
2023/03/04 09:14:26;;;;;;;57.40;31.23;;;5.20;64.80;;;;;;5034310;28;20039;-73
2023/03/04 09:16:51;;;;;;;53.97;30.65;;;5.50;64.00;;;;;;5052411;28;20079;-72
2023/03/04 09:19:17;;;;;;;54.90;30.30;;;5.70;62.70;;;;;;5052073;28;20052;-72
2023/03/04 09:21:43;;;;;;;52.33;29.98;;;5.70;60.90;;;;;;5052216;28;20029;-73
2023/03/04 09:24:08;;;;;;;52.00;29.20;;;5.60;60.70;;;;;;5052285;28;20029;-73
2023/03/04 09:26:34;;;;;;;54.20;30.70;;;5.80;60.60;;;;;;5052325;28;20017;-73
2023/03/04 09:29:01;;;;;;;56.38;31.52;;;6.00;59.40;;;;;;5052213;28;20029;-74
2023/03/04 09:31:28;;;;;;;61.53;32.67;;;5.90;59.00;;;;;;5052107;28;20029;-74
2023/03/04 09:33:56;;;;;;;56.88;32.08;;;6.00;59.40;;;;;;5051880;28;20032;-73
2023/03/04 09:36:22;;;;;;;52.40;30.55;;;5.90;59.70;;;;;;5051645;28;20029;-73
2023/03/04 09:38:47;;;;;;;57.17;31.23;;;6.00;58.80;;;;;;5032744;28;20061;-74
2023/03/04 09:41:20;;;;;;;58.47;32.95;;;6.20;59.00;;;;;;5050964;28;20057;-73
2023/03/04 09:43:48;;;;;;;56.13;32.20;;;6.30;58.50;;;;;;5051223;28;20047;-74
2023/03/04 09:46:21;;;;;;;63.83;34.17;;;6.20;59.20;;;;;;5052128;28;20039;-73
2023/03/04 09:48:53;;;;;;;63.20;36.20;;;6.50;58.00;;;;;;5051869;28;20029;-73
2023/03/04 09:51:34;;;;;;;57.15;32.72;;;6.60;57.60;;;;;;5052016;28;20112;-73
2023/03/04 09:54:07;;;;;;;65.63;36.50;;;6.50;57.60;;;;;;5052173;28;20071;-73
2023/03/04 09:56:40;;;;;;;58.05;34.13;;;6.30;59.10;;;;;;5051953;28;20035;-74
2023/03/04 09:59:33;;;;;;;59.63;32.90;;;6.30;58.40;;;;;;5051983;28;20025;-74
2023/03/04 10:02:11;;;;;;;57.95;31.35;;;6.50;58.20;;;;;;5033939;28;20108;-72
2023/03/04 10:04:47;;;;;;;54.67;29.70;;;6.60;58.20;;;;;;5052030;28;20058;-73
2023/03/04 10:07:18;;;;;;;51.90;29.92;;;7.00;56.80;;;;;;5052059;28;20028;-75
2023/03/04 10:10:12;;;;;;;54.65;28.90;;;7.40;56.70;;;;;;5052080;28;20021;-73
2023/03/04 10:12:41;;;;;;;50.53;29.40;;;7.50;54.30;;;;;;5052091;28;20024;-78
2023/03/04 10:15:24;;;;;;;50.65;29.10;;;7.60;54.00;;;;;;5051586;28;20025;-77
2023/03/04 10:18:00;;;;;;;50.95;28.80;;;7.60;54.20;;;;;;5051668;28;20052;-75
2023/03/04 10:20:42;;;;;;;52.45;28.98;;;7.90;53.70;;;;;;5052044;28;20025;-73
2023/03/04 10:23:17;;;;;;;51.05;29.15;;;8.10;52.00;;;;;;5051529;28;20032;-75
2023/03/04 10:25:45;;;;;;;55.17;30.35;;;8.10;52.00;;;;;;5055052;28;20432;-73
2023/03/04 10:28:17;;;;;;;59.90;32.75;;;8.20;52.30;;;;;;5055315;28;20450;-73
2023/03/04 10:30:57;;;;;;;52.88;30.60;;;8.30;51.10;;;;;;5055138;28;20071;-73
2023/03/04 10:33:35;;;;;;;53.40;30.70;;;9.00;50.70;;;;;;5054867;28;20021;-73
2023/03/04 10:36:28;;;;;;;50.85;30.85;;;9.40;48.30;;;;;;5054977;28;20044;-73
2023/03/04 10:39:16;;;;;;;56.40;31.40;;;9.70;48.20;;;;;;5055048;28;20025;-72
2023/03/04 10:41:44;;;;;;;51.28;31.27;;;9.70;47.50;;;;;;5053813;28;20072;-73
2023/03/04 10:44:10;;;;;;;51.75;29.05;;;9.50;47.10;;;;;;5037207;28;20472;-72
2023/03/04 10:46:47;;;;;;;53.40;31.95;;;9.20;48.50;;;;;;5053895;28;20044;-76
2023/03/04 10:49:15;;;;;;;54.20;31.08;;;9.50;48.30;;;;;;5054670;28;20017;-76
2023/03/04 10:51:48;;;;;;;52.30;30.50;;;9.10;48.40;;;;;;5036774;28;20128;-75
2023/03/04 10:54:27;;;;;;;56.15;30.13;;;9.10;48.80;;;;;;5054871;28;20021;-74
2023/03/04 10:57:00;;;;;;;54.15;30.05;;;9.40;47.70;;;;;;5054602;28;20029;-75
2023/03/04 10:59:45;;;;;;;54.15;31.10;;;9.50;47.50;;;;;;5036234;28;20031;-75
2023/03/04 11:02:25;;;;;;;64.15;34.45;;;9.90;47.30;;;;;;5054684;28;20481;-75
2023/03/04 11:04:52;;;;;;;55.22;30.92;;;10.10;45.80;;;;;;5054500;28;20462;-72
2023/03/04 11:07:27;;;;;;;49.97;29.33;;;10.10;45.30;;;;;;5053218;28;20029;-73
2023/03/04 11:09:53;;;;;;;53.88;30.55;;;10.30;45.50;;;;;;5054528;28;20351;-73
2023/03/04 11:12:30;;;;;;;51.30;29.40;;;10.20;45.50;;;;;;5054537;28;20083;-73
2023/03/04 11:14:55;;;;;;;52.05;30.52;;;10.50;44.60;;;;;;5036314;28;20511;-74
2023/03/04 11:17:41;;;;;;;48.33;28.27;;;10.60;43.70;;;;;;5053841;28;20033;-73
2023/03/04 11:20:27;;;;;;;36.80;21.65;;;10.80;43.20;;;;;;5054406;28;20040;-73
2023/03/04 11:22:56;;;;;;;51.15;29.35;;;10.50;43.70;;;;;;5053944;28;20035;-73
2023/03/04 11:25:28;;;;;;;47.45;29.08;;;10.80;43.50;;;;;;5053224;28;20021;-77
2023/03/04 11:27:59;;;;;;;45.13;26.73;;;10.50;44.90;;;;;;5052931;28;20109;-73
2023/03/04 11:30:42;;;;;;;45.50;27.52;;;10.70;44.90;;;;;;5052910;28;20098;-73
2023/03/04 11:33:32;;;;;;;48.35;27.92;;;11.00;43.40;;;;;;5051491;28;20031;-74
2023/03/04 11:36:31;;;;;;;42.55;25.52;;;11.30;42.80;;;;;;5053023;28;20108;-74
2023/03/04 11:38:57;;;;;;;41.83;26.30;;;11.50;41.80;;;;;;5054514;28;20021;-75
2023/03/04 11:41:35;;;;;;;42.42;25.45;;;11.30;42.00;;;;;;5064856;28;20021;-74
2023/03/04 11:44:04;;;;;;;46.92;27.02;;;10.80;43.70;;;;;;5055071;28;20024;-74
2023/03/04 11:46:52;;;;;;;40.00;25.08;;;10.90;43.30;;;;;;5053781;28;20035;-73
2023/03/04 11:49:57;;;;;;;38.72;24.73;;;11.20;43.40;;;;;;5053599;28;20029;-73
2023/03/04 11:52:49;;;;;;;39.80;25.45;;;11.60;41.60;;;;;;5053575;28;20021;-74
2023/03/04 11:55:36;;;;;;;42.90;25.48;;;11.20;41.10;;;;;;5053270;28;20135;-74
2023/03/04 11:58:19;;;;;;;41.53;25.33;;;11.30;41.30;;;;;;5053426;28;20048;-75
2023/03/04 12:01:13;;;;;;;43.25;25.38;;;11.60;40.20;;;;;;5053043;28;20024;-72
2023/03/04 12:03:59;;;;;;;42.95;25.38;;;11.50;40.80;;;;;;5051349;28;20051;-73
2023/03/04 12:06:49;;;;;;;43.97;25.50;;;11.40;40.50;;;;;;5034056;28;20429;-73
2023/03/04 12:09:25;;;;;;;41.47;25.30;;;11.00;41.70;;;;;;5053367;28;20024;-74
2023/03/04 12:12:19;;;;;;;41.72;25.55;;;10.70;42.40;;;;;;5053380;28;20025;-74
2023/03/04 12:14:51;;;;;;;40.15;25.48;;;11.10;41.80;;;;;;5045599;28;20501;-72
2023/03/04 12:17:31;;;;;;;43.78;24.67;;;11.70;40.90;;;;;;5053207;28;20032;-75
2023/03/04 12:20:20;;;;;;;39.75;25.50;;;12.20;39.90;;;;;;5053418;28;20397;-74
2023/03/04 12:22:55;;;;;;;43.38;25.75;;;12.40;38.40;;;;;;5052757;28;20029;-75
2023/03/04 12:25:34;;;;;;;44.58;26.27;;;12.60;38.00;;;;;;5053171;28;20103;-75
2023/03/04 12:28:24;;;;;;;41.75;24.27;;;12.30;38.00;;;;;;5053268;28;20116;-75
2023/03/04 12:31:06;;;;;;;42.95;25.48;;;12.50;38.30;;;;;;5052086;28;20033;-75
2023/03/04 12:33:43;;;;;;;42.22;25.80;;;12.00;38.80;;;;;;5049782;28;20508;-81
2023/03/04 12:36:22;;;;;;;37.70;24.25;;;11.90;39.90;;;;;;5049385;28;20032;-76
2023/03/04 12:39:12;;;;;;;40.78;24.60;;;12.20;39.30;;;;;;5049375;28;20013;-76
2023/03/04 12:42:06;;;;;;;44.38;25.40;;;12.30;38.80;;;;;;5052807;28;20082;-76